Time;durP1;ratioP1;P1;durP2;ratioP2;P2;SDS_P1;SDS_P2;PMS_P1;PMS_P2;Temp;Humidity;BMP_temperature;BMP_pressure;BME280_temperature;BME280_humidity;BME280_pressure;Samples;Min_cycle;Max_cycle;Signal;HPM_P1;HPM_P2
2024/01/06 00:00:30;;;;;;;4.28;2.53;;;0.00;99.90;;;;;;5004837;28;20108;-68
2024/01/06 00:02:55;;;;;;;5.95;2.92;;;0.00;99.90;;;;;;5005689;28;20057;-67
2024/01/06 00:05:21;;;;;;;6.00;2.30;;;0.00;99.90;;;;;;4999880;28;20026;-67
2024/01/06 00:07:46;;;;;;;6.97;2.70;;;0.00;99.90;;;;;;5000670;28;20026;-67
2024/01/06 00:10:11;;;;;;;5.25;2.65;;;0.00;99.90;;;;;;4998496;28;20030;-67
2024/01/06 00:12:37;;;;;;;6.53;2.80;;;0.00;99.90;;;;;;4998540;28;20026;-68
2024/01/06 00:15:03;;;;;;;3.88;1.95;;;0.00;99.90;;;;;;5004293;28;20048;-67
2024/01/06 00:17:29;;;;;;;5.38;2.42;;;0.00;99.90;;;;;;4998641;28;20045;-68
2024/01/06 00:19:54;;;;;;;5.32;2.20;;;0.00;99.90;;;;;;5009893;28;20025;-67
2024/01/06 00:22:20;;;;;;;3.92;1.88;;;0.00;99.90;;;;;;5002296;28;20042;-67
2024/01/06 00:24:46;;;;;;;3.95;1.92;;;0.00;99.90;;;;;;4997481;28;20048;-68
2024/01/06 00:27:13;;;;;;;4.05;2.13;;;-3276.70;99.90;;;;;;4992714;28;20092;-68
2024/01/06 00:29:38;;;;;;;4.90;2.40;;;0.00;99.90;;;;;;4996526;28;20405;-67
2024/01/06 00:32:05;;;;;;;5.55;2.70;;;0.00;99.90;;;;;;4986885;28;20125;-71
2024/01/06 00:34:30;;;;;;;5.57;2.40;;;0.00;99.90;;;;;;4984901;28;20038;-67
2024/01/06 00:36:55;;;;;;;5.45;2.78;;;0.00;99.90;;;;;;4995673;28;20049;-68
2024/01/06 00:39:21;;;;;;;5.07;2.58;;;-3276.70;99.90;;;;;;5001870;28;20457;-68
2024/01/06 00:41:46;;;;;;;4.53;2.40;;;0.00;99.90;;;;;;5003338;28;20375;-68
2024/01/06 00:44:12;;;;;;;5.07;2.40;;;0.00;99.90;;;;;;4996996;28;20029;-68
2024/01/06 00:46:39;;;;;;;6.35;2.60;;;0.00;99.90;;;;;;5004396;28;20053;-69
2024/01/06 00:49:04;;;;;;;5.15;2.58;;;0.00;99.90;;;;;;5003964;28;20115;-70
2024/01/06 00:51:30;;;;;;;4.97;2.47;;;0.00;99.90;;;;;;4993720;28;20081;-69
2024/01/06 00:53:55;;;;;;;5.32;2.55;;;0.00;99.90;;;;;;4993059;28;20446;-70
2024/01/06 00:56:21;;;;;;;5.18;2.60;;;0.00;99.90;;;;;;4993899;28;20043;-70
2024/01/06 00:58:46;;;;;;;4.95;2.17;;;0.00;99.90;;;;;;4992750;28;20117;-68
2024/01/06 01:01:12;;;;;;;5.28;2.33;;;0.00;99.90;;;;;;4998601;28;20397;-69
2024/01/06 01:03:37;;;;;;;6.88;2.63;;;0.00;99.90;;;;;;4999620;28;20533;-69
2024/01/06 01:06:03;;;;;;;5.65;2.40;;;0.00;99.90;;;;;;4991021;28;20435;-70
2024/01/06 01:08:30;;;;;;;5.60;2.60;;;-3276.70;99.90;;;;;;4996287;28;20122;-69
2024/01/06 01:10:56;;;;;;;4.57;2.05;;;0.00;99.90;;;;;;5000967;28;20346;-69
2024/01/06 01:13:22;;;;;;;4.40;2.33;;;0.00;99.90;;;;;;4996034;28;20032;-68
2024/01/06 01:15:48;;;;;;;6.45;2.88;;;-3276.70;99.90;;;;;;4996651;28;20034;-68
2024/01/06 01:18:13;;;;;;;5.45;2.10;;;-3276.70;99.90;;;;;;4998023;28;20074;-67
2024/01/06 01:20:39;;;;;;;7.68;2.90;;;0.00;99.90;;;;;;5003961;28;20038;-68
2024/01/06 01:23:04;;;;;;;4.05;2.13;;;-3276.70;99.90;;;;;;4999750;28;20088;-67
2024/01/06 01:25:29;;;;;;;5.60;2.00;;;0.00;99.90;;;;;;4995521;28;20061;-67
2024/01/06 01:27:55;;;;;;;5.30;2.58;;;0.00;99.90;;;;;;4999888;28;20100;-69
2024/01/06 01:30:20;;;;;;;5.82;2.08;;;0.00;99.90;;;;;;4991446;28;20415;-67
2024/01/06 01:32:46;;;;;;;6.18;3.05;;;0.00;99.90;;;;;;4999866;28;20042;-68
2024/01/06 01:35:11;;;;;;;5.88;2.55;;;-3276.70;99.90;;;;;;4994645;28;20176;-68
2024/01/06 01:37:37;;;;;;;5.60;2.10;;;0.00;99.90;;;;;;4994823;28;20033;-68
2024/01/06 01:40:03;;;;;;;7.22;2.28;;;0.00;99.90;;;;;;4995029;28;20030;-68
2024/01/06 01:42:28;;;;;;;7.45;2.90;;;0.00;99.90;;;;;;5002172;28;20130;-67
2024/01/06 01:44:53;;;;;;;4.18;2.10;;;0.00;99.90;;;;;;4989603;28;20061;-68
2024/01/06 01:47:21;;;;;;;5.75;2.80;;;0.00;99.90;;;;;;4993313;28;20347;-68
2024/01/06 01:49:47;;;;;;;7.35;2.63;;;0.00;99.90;;;;;;4984568;28;21499;-67
2024/01/06 01:52:14;;;;;;;6.05;2.17;;;0.00;99.90;;;;;;5001146;28;20451;-67
2024/01/06 01:54:40;;;;;;;5.35;2.30;;;0.00;99.90;;;;;;4995456;28;20037;-67
2024/01/06 01:57:06;;;;;;;5.05;2.45;;;0.00;99.90;;;;;;4996300;28;20034;-67
2024/01/06 01:59:33;;;;;;;4.40;2.10;;;0.00;99.90;;;;;;5000693;28;20114;-68
2024/01/06 02:01:59;;;;;;;3.50;1.75;;;0.00;99.90;;;;;;5000992;28;20045;-67
2024/01/06 02:04:25;;;;;;;5.22;2.13;;;0.00;99.90;;;;;;5002155;28;20148;-68
2024/01/06 02:06:50;;;;;;;5.18;2.13;;;0.00;99.90;;;;;;4991068;28;20125;-67
2024/01/06 02:09:16;;;;;;;7.05;2.00;;;0.00;99.90;;;;;;4995802;28;20380;-67
2024/01/06 02:11:41;;;;;;;7.55;2.67;;;0.00;99.90;;;;;;4994739;28;20030;-68
2024/01/06 02:14:06;;;;;;;6.50;2.30;;;0.00;99.90;;;;;;4993995;28;20117;-69
2024/01/06 02:16:32;;;;;;;5.05;2.80;;;0.00;99.90;;;;;;4999600;28;20116;-68
2024/01/06 02:18:58;;;;;;;5.85;2.35;;;0.00;99.90;;;;;;5004743;28;20034;-68
2024/01/06 02:21:23;;;;;;;6.65;2.58;;;0.00;99.90;;;;;;4997215;28;20042;-68
2024/01/06 02:23:49;;;;;;;4.78;2.42;;;0.00;99.90;;;;;;4994994;28;20200;-68
2024/01/06 02:26:16;;;;;;;7.05;2.42;;;0.00;99.90;;;;;;4996178;28;20471;-67
2024/01/06 02:28:41;;;;;;;5.85;2.45;;;0.00;99.90;;;;;;4995117;28;20525;-67
2024/01/06 02:31:06;;;;;;;6.35;2.30;;;0.00;99.90;;;;;;4994671;28;20038;-68
2024/01/06 02:33:32;;;;;;;6.65;2.30;;;0.00;99.90;;;;;;4992447;28;20102;-67
2024/01/06 02:35:57;;;;;;;6.60;2.50;;;0.00;99.90;;;;;;4995965;28;20071;-68
2024/01/06 02:38:23;;;;;;;4.50;2.30;;;0.00;99.90;;;;;;4997776;28;20144;-68
2024/01/06 02:40:48;;;;;;;4.10;1.80;;;0.00;99.90;;;;;;4997186;28;20070;-68
2024/01/06 02:43:14;;;;;;;5.72;2.00;;;0.00;99.90;;;;;;4999381;28;20557;-68
2024/01/06 02:45:39;;;;;;;2.47;1.58;;;0.00;99.90;;;;;;4997026;28;20125;-68
2024/01/06 02:48:05;;;;;;;6.47;2.10;;;0.00;99.90;;;;;;4998050;28;20084;-68
2024/01/06 02:50:31;;;;;;;4.45;1.55;;;0.00;99.90;;;;;;5004190;28;20030;-68
2024/01/06 02:52:56;;;;;;;6.07;2.05;;;0.00;99.90;;;;;;4982858;28;20084;-68
2024/01/06 02:55:21;;;;;;;5.00;1.70;;;0.00;99.90;;;;;;4979010;28;20466;-68
2024/01/06 02:57:47;;;;;;;6.45;2.13;;;0.00;99.90;;;;;;5004446;28;20034;-69
2024/01/06 03:00:13;;;;;;;4.38;2.05;;;0.00;99.90;;;;;;4997944;28;20045;-68
2024/01/06 03:02:41;;;;;;;6.35;1.90;;;0.00;99.90;;;;;;5005415;28;20108;-68
2024/01/06 03:05:07;;;;;;;4.20;1.60;;;0.00;99.90;;;;;;5006645;28;20034;-68
2024/01/06 03:07:33;;;;;;;5.82;2.20;;;0.00;99.90;;;;;;4998370;28;20052;-68
2024/01/06 03:09:58;;;;;;;4.18;2.28;;;0.00;99.90;;;;;;4993146;28;20118;-69
2024/01/06 03:12:24;;;;;;;4.65;1.98;;;0.00;99.90;;;;;;4990586;28;20045;-68
2024/01/06 03:14:51;;;;;;;4.55;1.98;;;0.00;99.90;;;;;;4990135;28;20493;-67
2024/01/06 03:17:16;;;;;;;3.70;1.83;;;0.00;99.90;;;;;;5001597;28;20504;-68
2024/01/06 03:19:42;;;;;;;5.05;2.05;;;0.00;99.90;;;;;;5004527;28;20138;-68
2024/01/06 03:22:07;;;;;;;4.72;2.17;;;0.00;99.90;;;;;;5002063;28;20405;-68
2024/01/06 03:24:33;;;;;;;3.40;1.75;;;0.00;99.90;;;;;;4997266;28;20113;-68
2024/01/06 03:26:58;;;;;;;5.30;2.40;;;0.00;99.90;;;;;;5000449;28;20038;-67
2024/01/06 03:29:24;;;;;;;3.72;1.88;;;0.00;99.90;;;;;;4996306;28;20122;-68
2024/01/06 03:31:49;;;;;;;5.75;2.72;;;0.00;99.90;;;;;;5000123;28;20091;-68
2024/01/06 03:34:15;;;;;;;5.22;2.28;;;0.00;99.90;;;;;;5005782;28;20347;-68
2024/01/06 03:36:40;;;;;;;4.65;2.25;;;0.00;99.90;;;;;;4999809;28;20351;-68
2024/01/06 03:39:06;;;;;;;2.28;1.52;;;0.00;99.90;;;;;;4999048;28;20120;-67
2024/01/06 03:41:32;;;;;;;4.78;1.80;;;-3276.70;99.90;;;;;;4998778;28;20376;-68
2024/01/06 03:43:58;;;;;;;4.95;2.40;;;0.00;99.90;;;;;;4993915;28;20093;-68
2024/01/06 03:46:23;;;;;;;4.47;2.38;;;-3276.70;99.90;;;;;;5003017;28;20590;-68
2024/01/06 03:48:49;;;;;;;5.20;2.03;;;0.00;99.90;;;;;;5005435;28;20029;-68
2024/01/06 03:51:15;;;;;;;4.95;2.17;;;-3276.70;99.90;;;;;;4984016;28;20025;-68
2024/01/06 03:53:40;;;;;;;5.47;2.22;;;0.00;99.90;;;;;;4988654;28;20038;-68
2024/01/06 03:56:06;;;;;;;5.03;2.13;;;0.00;99.90;;;;;;5004874;28;20033;-67
2024/01/06 03:58:32;;;;;;;4.45;2.08;;;-3276.70;99.90;;;;;;4999456;28;20410;-68
2024/01/06 04:00:57;;;;;;;5.05;2.65;;;-3276.70;99.90;;;;;;5001834;28;20038;-68
2024/01/06 04:03:23;;;;;;;4.53;2.17;;;-3276.70;99.90;;;;;;5002385;28;20049;-68
2024/01/06 04:05:48;;;;;;;5.47;2.28;;;-3276.70;99.90;;;;;;5006449;28;20148;-68
2024/01/06 04:08:14;;;;;;;5.78;2.45;;;-3276.70;99.90;;;;;;4997650;28;20129;-68
2024/01/06 04:10:41;;;;;;;5.68;2.50;;;-3276.70;99.90;;;;;;5006930;28;20473;-67
2024/01/06 04:13:07;;;;;;;4.18;2.17;;;-3276.70;99.90;;;;;;5001944;28;20459;-68
2024/01/06 04:15:32;;;;;;;5.60;2.17;;;-3276.70;99.90;;;;;;5004794;28;20080;-67
2024/01/06 04:18:03;;;;;;;5.68;2.15;;;-3276.70;99.90;;;;;;5005089;28;20030;-68
2024/01/06 04:20:28;;;;;;;5.95;2.75;;;-3276.70;99.90;;;;;;5000093;28;20045;-68
2024/01/06 04:22:54;;;;;;;5.18;2.47;;;-3276.70;99.90;;;;;;5002729;28;20050;-68
2024/01/06 04:25:19;;;;;;;5.90;2.42;;;-3276.70;99.90;;;;;;4995464;28;20030;-68
2024/01/06 04:27:46;;;;;;;7.28;2.67;;;-3276.70;99.90;;;;;;4996132;28;20447;-69
2024/01/06 04:30:12;;;;;;;4.50;2.42;;;-3276.70;99.90;;;;;;4997886;28;20055;-68
2024/01/06 04:32:38;;;;;;;5.72;2.22;;;-3276.70;99.90;;;;;;5001489;28;20100;-68
2024/01/06 04:35:04;;;;;;;4.45;2.15;;;-3276.70;99.90;;;;;;5001630;28;20072;-68
2024/01/06 04:37:30;;;;;;;5.40;2.50;;;-3276.60;99.90;;;;;;5000776;28;20355;-68
2024/01/06 04:39:55;;;;;;;4.97;2.95;;;-3276.70;99.90;;;;;;5003565;28;20038;-67
2024/01/06 04:42:22;;;;;;;5.60;2.65;;;-3276.70;99.90;;;;;;4997269;28;20057;-70
2024/01/06 04:44:48;;;;;;;7.25;2.83;;;-3276.70;99.90;;;;;;4992129;28;20050;-70
2024/01/06 04:47:13;;;;;;;4.47;2.13;;;-3276.60;99.90;;;;;;4995464;28;20510;-71
2024/01/06 04:49:39;;;;;;;5.53;2.38;;;-3276.60;99.90;;;;;;5000162;28;20034;-70
2024/01/06 04:52:04;;;;;;;5.65;2.42;;;-3276.60;99.90;;;;;;5000208;28;20503;-71
2024/01/06 04:54:30;;;;;;;5.93;2.70;;;-3276.60;99.90;;;;;;4998430;28;20057;-70
2024/01/06 04:56:56;;;;;;;6.30;2.45;;;-3276.60;99.90;;;;;;4996815;28;20038;-70
2024/01/06 04:59:21;;;;;;;4.50;2.28;;;-3276.60;99.90;;;;;;4995830;28;20034;-71
2024/01/06 05:01:47;;;;;;;7.03;3.47;;;-3276.60;99.90;;;;;;4997502;28;20084;-70
2024/01/06 05:04:12;;;;;;;6.78;2.97;;;-3276.60;99.90;;;;;;4998971;28;20034;-68
2024/01/06 05:06:38;;;;;;;6.65;2.58;;;-3276.60;99.90;;;;;;4997756;28;20055;-68
2024/01/06 05:09:03;;;;;;;5.47;2.97;;;-3276.60;99.90;;;;;;4997496;28;20045;-69
2024/01/06 05:11:29;;;;;;;7.80;2.75;;;-3276.60;99.90;;;;;;4996131;28;20034;-68
2024/01/06 05:13:54;;;;;;;4.18;2.25;;;-3276.60;99.90;;;;;;4996316;28;20026;-69
2024/01/06 05:16:20;;;;;;;5.00;2.58;;;-3276.60;99.90;;;;;;5002961;28;20459;-68
2024/01/06 05:18:45;;;;;;;5.90;3.03;;;-3276.60;99.90;;;;;;5000538;28;20033;-68
2024/01/06 05:21:11;;;;;;;7.22;2.60;;;-3276.60;99.90;;;;;;5007007;28;20456;-68
2024/01/06 05:23:36;;;;;;;5.35;2.28;;;-3276.60;99.90;;;;;;5003174;28;20076;-68
2024/01/06 05:26:02;;;;;;;5.68;3.08;;;-3276.50;99.90;;;;;;4999039;28;20376;-68
2024/01/06 05:28:27;;;;;;;5.47;2.58;;;-3276.50;99.90;;;;;;4998776;28;20113;-69
2024/01/06 05:30:53;;;;;;;8.70;3.17;;;-3276.50;99.90;;;;;;5001709;28;20117;-69
2024/01/06 05:33:18;;;;;;;8.18;2.63;;;-3276.50;99.90;;;;;;5004236;28;20113;-68
2024/01/06 05:35:44;;;;;;;5.20;2.80;;;-3276.50;99.90;;;;;;5000166;28;20034;-68
2024/01/06 05:38:09;;;;;;;5.88;2.65;;;-3276.50;99.90;;;;;;4981292;28;20026;-68
2024/01/06 05:40:34;;;;;;;6.70;2.17;;;-3276.50;99.90;;;;;;5001424;28;20477;-68
2024/01/06 05:43:00;;;;;;;6.00;2.55;;;-3276.50;99.90;;;;;;4994223;28;20077;-68
2024/01/06 05:45:25;;;;;;;6.40;3.38;;;-3276.50;99.90;;;;;;4996618;28;20450;-68
2024/01/06 05:47:51;;;;;;;7.03;2.95;;;-3276.40;99.90;;;;;;5000705;28;20099;-68
2024/01/06 05:50:16;;;;;;;4.80;2.75;;;-3276.50;99.90;;;;;;4993610;28;20036;-69
2024/01/06 05:52:42;;;;;;;6.43;3.30;;;-3276.50;99.90;;;;;;4995530;28;20125;-69
2024/01/06 05:55:09;;;;;;;8.32;3.63;;;-3276.50;99.90;;;;;;4997796;28;20439;-69
2024/01/06 05:57:34;;;;;;;5.78;2.75;;;-3276.50;99.90;;;;;;4996187;28;20141;-69
2024/01/06 06:00:00;;;;;;;6.75;3.13;;;-3276.50;99.90;;;;;;4993148;28;20394;-69
2024/01/06 06:02:25;;;;;;;5.55;2.80;;;-3276.40;99.90;;;;;;4996364;28;20053;-68
2024/01/06 06:04:52;;;;;;;6.28;2.80;;;-3276.40;99.90;;;;;;4994592;28;23120;-68
2024/01/06 06:07:17;;;;;;;6.60;2.70;;;-3276.40;99.90;;;;;;4998644;28;20057;-69
2024/01/06 06:09:43;;;;;;;6.50;2.95;;;-3276.40;99.90;;;;;;4994375;28;20065;-68
2024/01/06 06:12:08;;;;;;;6.85;3.42;;;-3276.40;99.90;;;;;;4997905;28;20029;-68
2024/01/06 06:14:34;;;;;;;7.25;3.15;;;-3276.40;99.90;;;;;;4994486;28;20105;-68
2024/01/06 06:16:59;;;;;;;7.47;3.13;;;-3276.40;99.90;;;;;;4998769;28;20031;-68
2024/01/06 06:19:25;;;;;;;7.22;3.28;;;-3276.40;99.90;;;;;;4995197;28;20383;-69
2024/01/06 06:21:50;;;;;;;7.63;3.83;;;-3276.40;99.90;;;;;;5000454;28;20044;-68
2024/01/06 06:24:16;;;;;;;7.88;3.55;;;-3276.30;99.90;;;;;;4997932;28;20085;-68
2024/01/06 06:26:41;;;;;;;7.35;2.95;;;-3276.40;99.90;;;;;;4992119;28;20049;-68
2024/01/06 06:29:07;;;;;;;6.20;3.25;;;-3276.40;99.90;;;;;;4990166;28;20459;-69
2024/01/06 06:31:32;;;;;;;7.25;3.97;;;-3276.30;99.90;;;;;;4999964;28;20044;-68
2024/01/06 06:33:58;;;;;;;7.63;4.05;;;-3276.40;99.90;;;;;;5000256;28;20087;-69
2024/01/06 06:36:23;;;;;;;8.57;3.65;;;-3276.40;99.90;;;;;;5000052;28;20030;-69
2024/01/06 06:38:49;;;;;;;6.95;3.22;;;-3276.30;99.90;;;;;;4995020;28;20049;-69
2024/01/06 06:41:15;;;;;;;9.43;3.72;;;-3276.30;99.90;;;;;;4999646;28;20450;-68
2024/01/06 06:43:41;;;;;;;9.95;3.75;;;-3276.30;99.90;;;;;;4992506;28;20042;-68
2024/01/06 06:46:06;;;;;;;7.75;4.18;;;-3276.30;99.90;;;;;;5003777;28;20042;-68
2024/01/06 06:48:32;;;;;;;9.27;4.28;;;-3276.30;99.90;;;;;;4998676;28;20428;-69
2024/01/06 06:50:57;;;;;;;8.32;4.05;;;-3276.30;99.90;;;;;;4980786;28;20033;-68
2024/01/06 06:53:23;;;;;;;8.68;3.85;;;-3276.40;99.90;;;;;;5000479;28;20439;-68
2024/01/06 06:55:48;;;;;;;7.68;3.80;;;-3276.30;99.90;;;;;;4995975;28;20050;-67
2024/01/06 06:58:14;;;;;;;7.85;3.97;;;-3276.30;99.90;;;;;;4996282;28;20207;-67
2024/01/06 07:00:39;;;;;;;10.00;4.20;;;-3276.30;99.90;;;;;;5000476;28;20442;-68
2024/01/06 07:03:05;;;;;;;12.55;4.35;;;-3276.30;99.90;;;;;;5000453;28;20061;-68
2024/01/06 07:05:30;;;;;;;12.32;5.22;;;-3276.30;99.90;;;;;;5008197;28;20206;-67
2024/01/06 07:07:56;;;;;;;9.13;4.07;;;-3276.30;99.90;;;;;;5004547;28;20548;-68
2024/01/06 07:10:22;;;;;;;9.35;4.47;;;-3276.30;99.90;;;;;;4998605;28;20037;-67
2024/01/06 07:12:47;;;;;;;7.55;4.05;;;-3276.30;99.90;;;;;;5004626;28;20030;-68
2024/01/06 07:15:13;;;;;;;10.15;4.28;;;-3276.20;99.90;;;;;;5002808;28;20544;-67
2024/01/06 07:17:38;;;;;;;9.82;4.28;;;-3276.30;99.90;;;;;;5004393;28;20267;-68
2024/01/06 07:20:06;;;;;;;8.93;3.85;;;-3276.30;99.90;;;;;;5003276;28;20053;-68
2024/01/06 07:22:34;;;;;;;9.80;4.47;;;-3276.30;99.90;;;;;;5003826;28;20034;-68
2024/01/06 07:25:00;;;;;;;9.38;3.92;;;-3276.20;99.90;;;;;;5008968;28;20387;-68
2024/01/06 07:27:25;;;;;;;8.77;4.00;;;-3276.20;99.90;;;;;;5005658;28;20108;-68
2024/01/06 07:29:51;;;;;;;10.18;4.28;;;-3276.30;99.90;;;;;;4997543;28;20106;-69
2024/01/06 07:32:16;;;;;;;9.32;3.80;;;-3276.20;99.90;;;;;;5002692;28;20082;-69
2024/01/06 07:34:43;;;;;;;10.70;4.05;;;-3276.20;99.90;;;;;;4999429;28;20085;-69
2024/01/06 07:37:08;;;;;;;11.07;3.67;;;-3276.10;99.90;;;;;;5001574;28;20026;-69
2024/01/06 07:39:34;;;;;;;11.20;4.72;;;-3276.10;99.90;;;;;;4999037;28;20473;-68
2024/01/06 07:41:59;;;;;;;8.38;4.60;;;-3276.20;99.90;;;;;;5001533;28;20097;-68
2024/01/06 07:44:25;;;;;;;9.93;4.38;;;-3276.20;99.90;;;;;;4999448;28;20061;-68
2024/01/06 07:46:51;;;;;;;10.77;4.32;;;-3276.20;99.90;;;;;;5003398;28;20097;-69
2024/01/06 07:49:17;;;;;;;10.15;4.13;;;-3276.20;99.90;;;;;;5000758;28;20093;-69
2024/01/06 07:51:42;;;;;;;9.68;3.55;;;-3276.20;99.90;;;;;;5002044;28;20113;-68
2024/01/06 07:54:09;;;;;;;10.45;4.20;;;-3276.10;99.90;;;;;;4992641;28;20045;-68
2024/01/06 07:56:35;;;;;;;9.88;4.82;;;-3276.10;99.90;;;;;;4999263;28;20026;-69
2024/01/06 07:59:01;;;;;;;7.90;4.13;;;-3276.20;99.90;;;;;;4979530;28;20104;-69
2024/01/06 08:01:26;;;;;;;9.35;4.85;;;-3276.20;99.90;;;;;;4995632;28;20514;-69
2024/01/06 08:03:52;;;;;;;9.65;5.03;;;-3276.10;99.90;;;;;;4993406;28;20037;-70
2024/01/06 08:06:17;;;;;;;7.13;3.75;;;-3276.20;99.90;;;;;;4991770;28;20151;-69
2024/01/06 08:08:43;;;;;;;9.63;4.35;;;-3276.10;99.90;;;;;;4972911;28;20042;-69
2024/01/06 08:11:08;;;;;;;8.63;4.10;;;-3276.20;99.90;;;;;;4995155;28;20038;-70
2024/01/06 08:13:34;;;;;;;7.93;3.95;;;-3276.10;99.90;;;;;;4987437;28;20402;-69
2024/01/06 08:15:59;;;;;;;9.15;4.10;;;-3276.20;99.90;;;;;;4993225;28;20033;-70
2024/01/06 08:18:25;;;;;;;8.82;3.67;;;-3276.20;99.90;;;;;;5002456;28;20477;-68
2024/01/06 08:20:50;;;;;;;8.30;4.28;;;-3276.20;99.90;;;;;;4993953;28;20041;-69
2024/01/06 08:23:18;;;;;;;11.57;4.70;;;-3276.10;99.90;;;;;;4988910;28;20049;-69
2024/01/06 08:25:45;;;;;;;9.45;4.10;;;-3276.20;99.90;;;;;;4996800;28;20124;-69
2024/01/06 08:28:11;;;;;;;9.20;4.32;;;-3276.10;99.90;;;;;;4990375;28;20096;-69
2024/01/06 08:30:36;;;;;;;7.32;3.90;;;-3276.10;99.90;;;;;;4994925;28;20116;-70
2024/01/06 08:33:02;;;;;;;9.10;4.20;;;-3276.20;99.90;;;;;;4996306;28;20385;-70
2024/01/06 08:35:28;;;;;;;10.48;4.68;;;-3276.20;99.90;;;;;;4992213;28;20114;-70
2024/01/06 08:37:53;;;;;;;7.93;3.65;;;-3276.10;99.90;;;;;;4996238;28;20146;-69
2024/01/06 08:40:18;;;;;;;10.50;5.00;;;-3276.20;99.90;;;;;;4990651;28;20118;-69
2024/01/06 08:42:44;;;;;;;12.88;4.88;;;-3276.20;99.90;;;;;;4998310;28;20037;-69
2024/01/06 08:45:09;;;;;;;9.00;3.88;;;-3276.20;99.90;;;;;;4995778;28;20132;-70
2024/01/06 08:47:35;;;;;;;9.52;4.25;;;-3276.20;99.90;;;;;;4994682;28;20494;-69
2024/01/06 08:50:00;;;;;;;9.35;4.32;;;-3276.10;99.80;;;;;;4991854;28;20086;-69
2024/01/06 08:52:26;;;;;;;11.77;5.20;;;-3276.20;99.90;;;;;;4997359;28;20120;-69
2024/01/06 08:54:51;;;;;;;7.53;4.00;;;-3276.10;99.80;;;;;;4999889;28;20050;-69
2024/01/06 08:57:17;;;;;;;7.68;4.65;;;-3276.10;99.80;;;;;;5004150;28;20034;-69
2024/01/06 08:59:45;;;;;;;9.35;4.30;;;-3276.10;99.80;;;;;;4998133;28;20051;-68
2024/01/06 09:02:10;;;;;;;10.15;4.60;;;-3276.10;99.80;;;;;;4998721;28;20411;-69
2024/01/06 09:04:36;;;;;;;10.27;4.55;;;-3276.20;99.90;;;;;;5000036;28;20018;-69
2024/01/06 09:07:01;;;;;;;11.57;4.32;;;-3276.20;99.80;;;;;;4991218;28;20096;-68
2024/01/06 09:09:28;;;;;;;11.52;5.18;;;-3276.30;99.80;;;;;;4992503;28;20030;-70
2024/01/06 09:11:53;;;;;;;11.45;4.15;;;-3276.20;99.70;;;;;;4996761;28;20067;-69
2024/01/06 09:14:19;;;;;;;7.93;4.53;;;-3276.20;99.80;;;;;;4988869;28;20414;-69
2024/01/06 09:16:45;;;;;;;9.38;4.50;;;-3276.20;99.60;;;;;;4999194;28;20094;-68
2024/01/06 09:19:10;;;;;;;7.60;3.83;;;-3276.20;99.70;;;;;;4996710;28;20033;-70
2024/01/06 09:21:36;;;;;;;7.90;4.35;;;-3276.20;99.60;;;;;;5004957;28;20173;-69
2024/01/06 09:24:06;;;;;;;7.05;3.78;;;-3276.20;99.70;;;;;;4988528;28;20078;-69
2024/01/06 09:26:33;;;;;;;10.00;4.83;;;-3276.20;99.50;;;;;;5004367;28;20411;-69
2024/01/06 09:28:59;;;;;;;9.43;4.75;;;-3276.20;99.50;;;;;;4998389;28;20463;-68
2024/01/06 09:31:25;;;;;;;10.02;4.45;;;-3276.20;99.60;;;;;;5002702;28;20336;-69
2024/01/06 09:33:50;;;;;;;8.05;4.25;;;-3276.20;99.50;;;;;;4995786;28;20048;-68
2024/01/06 09:36:16;;;;;;;11.00;4.45;;;-3276.20;99.40;;;;;;4994531;28;20442;-68
2024/01/06 09:38:41;;;;;;;8.02;3.92;;;-3276.20;99.40;;;;;;4999595;28;20112;-69
2024/01/06 09:41:07;;;;;;;13.23;5.47;;;-3276.20;99.50;;;;;;4998399;28;20168;-68
2024/01/06 09:43:33;;;;;;;8.35;4.30;;;-3276.20;99.50;;;;;;4994662;28;20117;-69
2024/01/06 09:46:10;;;;;;;9.95;4.20;;;-3276.20;99.40;;;;;;5000408;28;20052;-69
2024/01/06 09:48:43;;;;;;;12.38;5.53;;;-3276.30;99.60;;;;;;4999652;28;20045;-69
2024/01/06 09:51:10;;;;;;;8.55;4.13;;;-3276.20;99.50;;;;;;4998884;28;20413;-69
2024/01/06 09:53:40;;;;;;;10.77;4.28;;;-3276.20;99.50;;;;;;4998446;28;20026;-69
2024/01/06 09:56:07;;;;;;;14.13;5.72;;;-3276.30;99.50;;;;;;4995787;28;20078;-69
2024/01/06 09:58:35;;;;;;;9.98;4.40;;;-3276.30;99.50;;;;;;4994358;28;20038;-68
2024/01/06 10:01:01;;;;;;;11.27;4.97;;;-3276.30;99.40;;;;;;4978941;28;20052;-69
2024/01/06 10:03:27;;;;;;;10.05;4.13;;;-3276.20;99.50;;;;;;4983173;28;20104;-69
2024/01/06 10:05:52;;;;;;;11.90;5.15;;;-3276.20;99.50;;;;;;4997184;28;20049;-69
2024/01/06 10:08:18;;;;;;;8.18;3.92;;;-3276.20;99.40;;;;;;5001364;28;20038;-69
2024/01/06 10:10:45;;;;;;;9.65;4.22;;;-3276.10;99.40;;;;;;4995065;28;20073;-69
2024/01/06 10:13:12;;;;;;;9.93;4.38;;;-3276.20;99.50;;;;;;4993864;28;20489;-69
2024/01/06 10:15:38;;;;;;;11.18;4.72;;;-3276.10;99.40;;;;;;4997353;28;20105;-69
2024/01/06 10:18:04;;;;;;;8.13;3.60;;;-3276.10;99.50;;;;;;4978887;28;20041;-74
2024/01/06 10:20:29;;;;;;;8.45;4.20;;;-3276.10;99.40;;;;;;4998970;28;20065;-69
2024/01/06 10:22:55;;;;;;;9.20;4.63;;;-3276.10;99.50;;;;;;5001628;28;20056;-69
2024/01/06 10:25:23;;;;;;;7.85;4.55;;;-3276.10;99.50;;;;;;4997758;28;20030;-69
2024/01/06 10:27:49;;;;;;;10.50;4.20;;;-3276.10;99.50;;;;;;4998263;28;20091;-70
2024/01/06 10:30:18;;;;;;;9.43;3.75;;;-3276.20;99.60;;;;;;4994650;28;20415;-69
2024/01/06 10:32:43;;;;;;;6.75;3.70;;;-3276.10;99.40;;;;;;4998545;28;20022;-69
2024/01/06 10:35:09;;;;;;;9.57;4.30;;;-3276.20;99.50;;;;;;4992519;28;20367;-69
2024/01/06 10:37:36;;;;;;;10.02;4.65;;;-3276.30;99.50;;;;;;5000674;28;20030;-70
2024/01/06 10:40:16;;;;;;;10.18;4.05;;;-3276.30;99.50;;;;;;4996643;28;20034;-69
2024/01/06 10:42:42;;;;;;;9.65;4.18;;;-3276.30;99.40;;;;;;4998365;28;20128;-69
2024/01/06 10:45:10;;;;;;;10.73;3.55;;;-3276.40;99.50;;;;;;5002526;28;20085;-70
2024/01/06 10:47:40;;;;;;;9.45;4.43;;;-3276.30;99.40;;;;;;4998843;28;20034;-69
2024/01/06 10:50:07;;;;;;;7.68;3.88;;;-3276.30;99.30;;;;;;5006369;28;20398;-69
2024/01/06 10:52:34;;;;;;;9.23;4.32;;;-3276.30;99.40;;;;;;5003371;28;20121;-69
2024/01/06 10:55:02;;;;;;;10.98;4.10;;;-3276.30;99.30;;;;;;5002906;28;20030;-69
2024/01/06 10:57:31;;;;;;;9.77;4.50;;;-3276.30;99.30;;;;;;5004597;28;20141;-69
2024/01/06 10:59:58;;;;;;;11.57;5.15;;;-3276.30;99.40;;;;;;4993124;28;20037;-69
2024/01/06 11:02:25;;;;;;;8.98;4.18;;;-3276.30;99.40;;;;;;4999426;28;20033;-69
2024/01/06 11:04:51;;;;;;;7.63;3.83;;;-3276.30;99.30;;;;;;4996974;28;20030;-69
2024/01/06 11:07:19;;;;;;;10.25;4.65;;;-3276.30;99.20;;;;;;5003786;28;20258;-69
2024/01/06 11:09:57;;;;;;;8.45;4.65;;;-3276.30;99.30;;;;;;5001426;28;20922;-69
2024/01/06 11:12:23;;;;;;;10.23;4.50;;;-3276.30;99.30;;;;;;4979135;28;20026;-70
2024/01/06 11:14:48;;;;;;;11.27;4.18;;;-3276.30;99.20;;;;;;4995552;28;20101;-69
2024/01/06 11:17:58;;;;;;;10.30;4.15;;;-3276.30;99.30;;;;;;4997550;28;20055;-70
2024/01/06 11:20:26;;;;;;;11.57;5.13;;;-3276.20;99.30;;;;;;4993460;28;20480;-69
2024/01/06 11:22:52;;;;;;;9.15;4.20;;;-3276.20;99.30;;;;;;4998636;28;20069;-71
2024/01/06 11:25:20;;;;;;;10.10;4.65;;;-3276.20;99.30;;;;;;4999826;28;20069;-70
2024/01/06 11:27:48;;;;;;;8.30;3.90;;;-3276.10;99.30;;;;;;4999227;28;20061;-71
2024/01/06 11:30:28;;;;;;;8.93;4.18;;;-3276.10;99.20;;;;;;4978148;28;20121;-69
2024/01/06 11:32:58;;;;;;;8.75;4.70;;;-3276.00;98.90;;;;;;4999910;28;20124;-69
2024/01/06 11:35:26;;;;;;;11.75;4.65;;;-3276.10;99.20;;;;;;4996703;28;20103;-69
2024/01/06 11:37:55;;;;;;;8.65;4.30;;;-3276.10;99.20;;;;;;4995897;28;20418;-69
2024/01/06 11:40:20;;;;;;;8.73;3.88;;;-3276.10;99.10;;;;;;4996188;28;20487;-69
2024/01/06 11:42:57;;;;;;;9.20;4.82;;;-3276.10;98.90;;;;;;4995964;28;20175;-69
2024/01/06 11:45:24;;;;;;;8.82;4.18;;;-3276.20;99.20;;;;;;4996105;28;20065;-69
2024/01/06 11:47:55;;;;;;;8.25;4.00;;;-3276.20;99.20;;;;;;4999284;28;20066;-69
2024/01/06 11:50:21;;;;;;;10.05;4.78;;;-3276.20;99.10;;;;;;4995564;28;20517;-70
2024/01/06 11:52:46;;;;;;;8.05;3.25;;;-3276.20;99.00;;;;;;5004174;28;20118;-68
2024/01/06 11:55:12;;;;;;;11.43;4.38;;;-3276.20;98.80;;;;;;5001267;28;20080;-70
2024/01/06 11:57:38;;;;;;;10.35;4.28;;;-3276.20;99.00;;;;;;4996403;28;20045;-70
2024/01/06 12:00:05;;;;;;;8.30;4.50;;;-3276.20;99.00;;;;;;4992300;28;20115;-70
2024/01/06 12:02:30;;;;;;;10.05;3.67;;;-3276.30;99.00;;;;;;4986318;28;20029;-70
2024/01/06 12:04:56;;;;;;;10.15;4.50;;;-3276.30;99.00;;;;;;4996853;28;20090;-69
2024/01/06 12:07:22;;;;;;;7.57;3.60;;;-3276.30;99.00;;;;;;4997655;28;20053;-69
2024/01/06 12:09:48;;;;;;;8.07;3.92;;;-3276.30;99.00;;;;;;4998968;28;20100;-69
2024/01/06 12:12:16;;;;;;;7.63;4.05;;;-3276.20;98.80;;;;;;5001346;28;20053;-67
2024/01/06 12:14:42;;;;;;;7.43;3.83;;;-3276.30;99.00;;;;;;4989277;28;20045;-69
2024/01/06 12:17:08;;;;;;;10.73;4.32;;;-3276.30;99.00;;;;;;4997700;28;20379;-69
2024/01/06 12:19:33;;;;;;;12.35;4.18;;;-3276.30;98.90;;;;;;5002404;28;20123;-69